createdAt,value
2023-04-29T00:00:16.695Z,24.88
2023-04-29T00:01:16.632Z,24.88
2023-04-29T00:02:16.683Z,24.89
2023-04-29T00:03:16.934Z,24.88
2023-04-29T00:04:16.747Z,24.87
2023-04-29T00:05:16.941Z,24.88
2023-04-29T00:06:16.909Z,24.88
2023-04-29T00:07:16.720Z,24.88
2023-04-29T00:08:16.713Z,24.89
2023-04-29T00:09:16.713Z,24.88
2023-04-29T00:10:16.748Z,24.88
2023-04-29T00:11:16.705Z,24.88
2023-04-29T00:12:16.732Z,24.88
2023-04-29T00:13:16.790Z,24.88
2023-04-29T00:14:16.736Z,24.88
2023-04-29T00:15:16.737Z,24.88
2023-04-29T00:16:16.818Z,24.88
2023-04-29T00:17:16.796Z,24.88
2023-04-29T00:18:16.771Z,24.88
2023-04-29T00:19:16.810Z,24.89
2023-04-29T00:20:16.833Z,24.88
2023-04-29T00:21:16.870Z,24.88
2023-04-29T00:22:16.823Z,24.88
2023-04-29T00:23:16.825Z,24.88
2023-04-29T00:24:16.846Z,24.88
2023-04-29T00:25:16.876Z,24.88
2023-04-29T00:26:16.870Z,24.88
2023-04-29T00:27:16.941Z,24.88
2023-04-29T00:28:16.889Z,24.87
2023-04-29T00:29:16.880Z,24.87
2023-04-29T00:30:16.921Z,24.87
2023-04-29T00:31:16.955Z,24.87
2023-04-29T00:32:16.929Z,24.87
2023-04-29T00:33:16.983Z,24.87
2023-04-29T00:34:16.948Z,24.87
2023-04-29T00:35:16.943Z,24.87
2023-04-29T00:36:16.974Z,24.87
2023-04-29T00:37:16.970Z,24.87
2023-04-29T00:38:16.974Z,24.87
2023-04-29T00:39:16.997Z,24.87
2023-04-29T00:40:17.017Z,24.87
2023-04-29T00:41:17.008Z,24.87
2023-04-29T00:42:17.027Z,24.87
2023-04-29T00:43:17.060Z,24.87
2023-04-29T00:44:17.044Z,24.87
2023-04-29T00:45:17.167Z,24.86
2023-04-29T00:46:17.120Z,24.86
2023-04-29T00:47:17.079Z,24.86
2023-04-29T00:48:17.117Z,24.85
2023-04-29T00:49:17.146Z,24.86
2023-04-29T00:50:17.158Z,24.85
2023-04-29T00:51:17.173Z,24.87
2023-04-29T00:52:17.223Z,24.87
2023-04-29T00:53:17.186Z,24.87
2023-04-29T00:54:17.169Z,24.87
2023-04-29T00:55:17.190Z,24.86
2023-04-29T00:56:17.156Z,24.86
2023-04-29T00:57:17.206Z,24.86
2023-04-29T00:58:17.199Z,24.86
2023-04-29T00:59:17.223Z,24.86
2023-04-29T01:00:17.234Z,24.86
2023-04-29T01:01:17.276Z,24.86
2023-04-29T01:02:17.234Z,24.86
2023-04-29T01:03:17.378Z,24.86
2023-04-29T01:04:17.307Z,24.85
2023-04-29T01:05:17.293Z,24.86
2023-04-29T01:06:17.304Z,24.86
2023-04-29T01:07:17.309Z,24.85
2023-04-29T01:08:18.629Z,24.87
2023-04-29T01:09:17.348Z,24.86
2023-04-29T01:10:17.357Z,24.86
2023-04-29T01:11:17.373Z,24.86
2023-04-29T01:12:17.385Z,24.86
2023-04-29T01:13:17.394Z,24.85
2023-04-29T01:14:17.388Z,24.85
2023-04-29T01:15:17.401Z,24.86
2023-04-29T01:16:17.480Z,24.85
2023-04-29T01:17:17.413Z,24.86
2023-04-29T01:18:17.465Z,24.85
2023-04-29T01:19:17.432Z,24.85
2023-04-29T01:20:17.466Z,24.85
2023-04-29T01:21:17.468Z,24.86
2023-04-29T01:22:17.502Z,24.85
2023-04-29T01:23:17.500Z,24.85
2023-04-29T01:24:17.512Z,24.84
2023-04-29T01:25:17.553Z,24.84
2023-04-29T01:26:17.538Z,24.84
2023-04-29T01:27:17.538Z,24.84
2023-04-29T01:28:17.597Z,24.83
2023-04-29T01:29:17.583Z,24.85
2023-04-29T01:30:17.585Z,24.85
2023-04-29T01:31:17.623Z,24.84
2023-04-29T01:32:17.614Z,24.84
2023-04-29T01:33:17.660Z,24.84
2023-04-29T01:34:17.652Z,24.84
2023-04-29T01:35:17.677Z,24.84
2023-04-29T01:36:17.715Z,24.85
2023-04-29T01:37:17.654Z,24.84
2023-04-29T01:38:17.688Z,24.84
2023-04-29T01:39:17.720Z,24.84
2023-04-29T01:40:17.700Z,24.84
2023-04-29T01:41:17.755Z,24.84
2023-04-29T01:42:17.788Z,24.84
2023-04-29T01:43:17.778Z,24.84
2023-04-29T01:44:17.773Z,24.84
2023-04-29T01:45:17.804Z,24.83
2023-04-29T01:46:17.842Z,24.84
2023-04-29T01:47:17.825Z,24.84
2023-04-29T01:48:17.818Z,24.84
2023-04-29T01:49:17.860Z,24.83
2023-04-29T01:50:17.863Z,24.83
2023-04-29T01:51:17.849Z,24.82
2023-04-29T01:52:17.870Z,24.83
2023-04-29T01:53:17.905Z,24.82
2023-04-29T01:54:17.942Z,24.83
2023-04-29T01:55:17.981Z,24.83
2023-04-29T01:56:17.952Z,24.83
2023-04-29T01:57:17.929Z,24.83
2023-04-29T01:58:17.989Z,24.83
2023-04-29T01:59:17.994Z,24.83
2023-04-29T02:00:18.014Z,24.83
2023-04-29T02:01:18.141Z,24.83
2023-04-29T02:02:18.149Z,24.82
2023-04-29T02:03:18.161Z,24.83
2023-04-29T02:04:18.098Z,24.83
2023-04-29T02:05:18.067Z,24.83
2023-04-29T02:06:18.076Z,24.82
2023-04-29T02:07:18.105Z,24.82
2023-04-29T02:08:18.101Z,24.83
2023-04-29T02:09:18.139Z,24.82
2023-04-29T02:10:18.168Z,24.82
2023-04-29T02:11:18.182Z,24.82
2023-04-29T02:12:18.141Z,24.82
2023-04-29T02:13:18.202Z,24.82
2023-04-29T02:14:18.188Z,24.82
2023-04-29T02:15:18.196Z,24.82
2023-04-29T02:16:18.237Z,24.82
2023-04-29T02:17:18.246Z,24.82
2023-04-29T02:18:18.266Z,24.82
2023-04-29T02:19:18.274Z,24.82
2023-04-29T02:20:18.270Z,24.82
2023-04-29T02:21:18.287Z,24.82
2023-04-29T02:22:18.322Z,24.81
2023-04-29T02:23:18.355Z,24.80
2023-04-29T02:24:18.352Z,24.80
2023-04-29T02:25:18.356Z,24.80
2023-04-29T02:26:18.402Z,24.81
2023-04-29T02:27:18.417Z,24.81
2023-04-29T02:28:18.394Z,24.80
2023-04-29T02:29:18.430Z,24.80
2023-04-29T02:30:18.547Z,24.80
2023-04-29T02:31:18.489Z,24.80
2023-04-29T02:32:18.544Z,24.81
2023-04-29T02:33:18.506Z,24.80
2023-04-29T02:34:18.487Z,24.80
2023-04-29T02:35:18.574Z,24.80
2023-04-29T02:36:18.557Z,24.80
2023-04-29T02:37:18.526Z,24.80
2023-04-29T02:38:18.534Z,24.80
2023-04-29T02:39:18.571Z,24.80
2023-04-29T02:40:18.669Z,24.79
2023-04-29T02:41:18.584Z,24.79
2023-04-29T02:42:18.589Z,24.79
2023-04-29T02:43:18.611Z,24.79
2023-04-29T02:44:18.638Z,24.78
2023-04-29T02:45:18.640Z,24.79
2023-04-29T02:46:18.793Z,24.79
2023-04-29T02:47:18.682Z,24.79
2023-04-29T02:48:18.709Z,24.79
2023-04-29T02:49:18.706Z,24.79
2023-04-29T02:50:18.715Z,24.79
2023-04-29T02:51:18.744Z,24.79
2023-04-29T02:52:18.733Z,24.79
2023-04-29T02:53:18.786Z,24.79
2023-04-29T02:54:18.799Z,24.79
2023-04-29T02:55:18.811Z,24.78
2023-04-29T02:56:18.799Z,24.79
2023-04-29T02:57:18.840Z,24.78
2023-04-29T02:58:18.835Z,24.78
2023-04-29T02:59:18.852Z,24.78
2023-04-29T03:00:18.893Z,24.78
2023-04-29T03:01:18.947Z,24.78
2023-04-29T03:02:18.937Z,24.79
2023-04-29T03:03:19.065Z,24.78
2023-04-29T03:04:19.082Z,24.78
2023-04-29T03:05:18.964Z,24.77
2023-04-29T03:06:18.993Z,24.77
2023-04-29T03:07:18.999Z,24.78
2023-04-29T03:08:19.016Z,24.78
2023-04-29T03:09:19.021Z,24.77
2023-04-29T03:10:19.101Z,24.77
2023-04-29T03:11:19.072Z,24.78
2023-04-29T03:12:19.143Z,24.78
2023-04-29T03:13:19.107Z,24.78
2023-04-29T03:14:19.142Z,24.77
2023-04-29T03:15:19.205Z,24.78
2023-04-29T03:16:19.297Z,24.78
2023-04-29T03:17:19.244Z,24.78
2023-04-29T03:18:19.253Z,24.77
2023-04-29T03:19:19.270Z,24.77
2023-04-29T03:20:19.306Z,24.77
2023-04-29T03:21:19.316Z,24.78
2023-04-29T03:22:19.331Z,24.77
2023-04-29T03:23:19.377Z,24.77
2023-04-29T03:24:19.341Z,24.78
2023-04-29T03:25:19.398Z,24.77
2023-04-29T03:26:19.442Z,24.77
2023-04-29T03:27:19.422Z,24.77
2023-04-29T03:28:19.456Z,24.77
2023-04-29T03:29:19.444Z,24.76
2023-04-29T03:30:19.506Z,24.77
2023-04-29T03:31:19.514Z,24.76
2023-04-29T03:32:19.513Z,24.76
2023-04-29T03:33:19.533Z,24.76
2023-04-29T03:34:19.540Z,24.77
2023-04-29T03:35:19.561Z,24.77
2023-04-29T03:36:19.608Z,24.77
2023-04-29T03:37:19.631Z,24.76
2023-04-29T03:38:19.655Z,24.77
2023-04-29T03:39:19.644Z,24.77
2023-04-29T03:40:19.654Z,24.76
2023-04-29T03:41:19.692Z,24.76
2023-04-29T03:42:19.685Z,24.76
2023-04-29T03:43:19.712Z,24.76
2023-04-29T03:44:19.734Z,24.76
2023-04-29T03:45:19.754Z,24.76
2023-04-29T03:46:19.857Z,24.76
2023-04-29T03:47:19.751Z,24.76
2023-04-29T03:48:19.806Z,24.76
2023-04-29T03:49:19.801Z,24.76
2023-04-29T03:50:19.817Z,24.76
2023-04-29T03:51:19.825Z,24.76
2023-04-29T03:52:19.868Z,24.76
2023-04-29T03:53:19.853Z,24.76
2023-04-29T03:54:19.877Z,24.76
2023-04-29T03:55:19.903Z,24.76
2023-04-29T03:56:19.920Z,24.75
2023-04-29T03:57:19.921Z,24.75
2023-04-29T03:58:19.961Z,24.76
2023-04-29T03:59:19.979Z,24.76
2023-04-29T04:00:19.983Z,24.76
2023-04-29T04:01:19.997Z,24.75
2023-04-29T04:02:20.083Z,24.76
2023-04-29T04:03:20.156Z,24.75
2023-04-29T04:04:20.235Z,24.75
2023-04-29T04:05:20.087Z,24.75
2023-04-29T04:06:20.118Z,24.75
2023-04-29T04:07:20.147Z,24.76
2023-04-29T04:08:20.120Z,24.76
2023-04-29T04:09:20.146Z,24.75
2023-04-29T04:10:20.159Z,24.76
2023-04-29T04:11:20.151Z,24.76
2023-04-29T04:12:20.185Z,24.75
2023-04-29T04:13:20.178Z,24.75
2023-04-29T04:14:20.247Z,24.75
2023-04-29T04:15:20.238Z,24.75
2023-04-29T04:16:20.299Z,24.75
2023-04-29T04:17:20.249Z,24.74
2023-04-29T04:18:20.264Z,24.75
2023-04-29T04:19:20.272Z,24.74
2023-04-29T04:20:20.327Z,24.74
2023-04-29T04:21:20.341Z,24.74
2023-04-29T04:22:20.334Z,24.74
2023-04-29T04:23:20.342Z,24.75
2023-04-29T04:24:20.374Z,24.74
2023-04-29T04:25:20.412Z,24.74
2023-04-29T04:26:20.446Z,24.74
2023-04-29T04:27:20.447Z,24.74
2023-04-29T04:28:20.463Z,24.74
2023-04-29T04:29:20.474Z,24.74
2023-04-29T04:30:20.509Z,24.74
2023-04-29T04:31:20.636Z,24.74
2023-04-29T04:32:20.595Z,24.74
2023-04-29T04:33:20.590Z,24.74
2023-04-29T04:34:20.630Z,24.73
2023-04-29T04:35:20.628Z,24.74
2023-04-29T04:36:20.656Z,24.74
2023-04-29T04:37:20.632Z,24.74
2023-04-29T04:38:20.679Z,24.73
2023-04-29T04:39:20.702Z,24.73
2023-04-29T04:40:20.691Z,24.74
2023-04-29T04:41:20.723Z,24.73
2023-04-29T04:42:20.751Z,24.74
2023-04-29T04:43:20.766Z,24.73
2023-04-29T04:44:20.761Z,24.73
2023-04-29T04:45:20.801Z,24.73
2023-04-29T04:46:20.876Z,24.73
2023-04-29T04:47:20.821Z,24.72
2023-04-29T04:48:20.876Z,24.73
2023-04-29T04:49:20.899Z,24.72
2023-04-29T04:50:20.877Z,24.72
2023-04-29T04:51:20.916Z,24.72
2023-04-29T04:52:20.901Z,24.72
2023-04-29T04:53:20.962Z,24.72
2023-04-29T04:54:20.972Z,24.72
2023-04-29T04:55:20.982Z,24.72
2023-04-29T04:56:21.582Z,24.72
2023-04-29T04:57:21.008Z,24.73
2023-04-29T04:58:21.052Z,24.72
2023-04-29T04:59:21.046Z,24.72
2023-04-29T05:00:21.070Z,24.72
2023-04-29T05:01:21.142Z,24.72
2023-04-29T05:02:21.327Z,24.72
2023-04-29T05:03:21.320Z,24.72
2023-04-29T05:04:21.262Z,24.72
2023-04-29T05:05:21.182Z,24.73
2023-04-29T05:06:21.194Z,24.73
2023-04-29T05:07:21.213Z,24.72
2023-04-29T05:08:21.221Z,24.73
2023-04-29T05:09:21.234Z,24.73
2023-04-29T05:10:21.278Z,24.73
2023-04-29T05:11:21.320Z,24.73
2023-04-29T05:12:21.294Z,24.73
2023-04-29T05:13:21.325Z,24.73
2023-04-29T05:14:21.370Z,24.72
2023-04-29T05:15:21.349Z,24.72
2023-04-29T05:16:21.395Z,24.71
2023-04-29T05:17:21.448Z,24.73
2023-04-29T05:18:21.407Z,24.72
2023-04-29T05:19:21.411Z,24.73
2023-04-29T05:20:21.458Z,24.72
2023-04-29T05:21:21.473Z,24.73
2023-04-29T05:22:21.494Z,24.74
2023-04-29T05:23:21.467Z,24.73
2023-04-29T05:24:21.529Z,24.72
2023-04-29T05:25:21.554Z,24.72
2023-04-29T05:26:21.538Z,24.72
2023-04-29T05:27:21.545Z,24.72
2023-04-29T05:28:21.642Z,24.72
2023-04-29T05:29:21.598Z,24.71
2023-04-29T05:30:21.612Z,24.72
2023-04-29T05:31:21.665Z,24.72
2023-04-29T05:32:21.655Z,24.73
2023-04-29T05:33:21.643Z,24.73
2023-04-29T05:34:21.664Z,24.73
2023-04-29T05:35:21.707Z,24.72
2023-04-29T05:36:21.722Z,24.73
2023-04-29T05:37:21.725Z,24.73
2023-04-29T05:38:21.761Z,24.72
2023-04-29T05:39:21.756Z,24.73
2023-04-29T05:40:21.767Z,24.73
2023-04-29T05:41:21.778Z,24.73
2023-04-29T05:42:21.784Z,24.73
2023-04-29T05:43:21.817Z,24.73
2023-04-29T05:44:21.839Z,24.73
2023-04-29T05:45:21.882Z,24.73
2023-04-29T05:46:21.935Z,24.73
2023-04-29T05:47:21.921Z,24.73
2023-04-29T05:48:21.954Z,24.74
2023-04-29T05:49:21.942Z,24.73
2023-04-29T05:50:21.917Z,24.73
2023-04-29T05:51:21.958Z,24.72
2023-04-29T05:52:21.959Z,24.73
2023-04-29T05:53:22.005Z,24.73
2023-04-29T05:54:22.023Z,24.73
2023-04-29T05:55:21.996Z,24.73
2023-04-29T05:56:22.028Z,24.73
2023-04-29T05:57:22.034Z,24.73
2023-04-29T05:58:22.086Z,24.74
2023-04-29T05:59:22.102Z,24.74
2023-04-29T06:00:22.080Z,24.74
2023-04-29T06:01:22.144Z,24.74
2023-04-29T06:02:22.375Z,24.74
2023-04-29T06:03:22.324Z,24.75
2023-04-29T06:04:22.549Z,24.74
2023-04-29T06:05:22.388Z,24.74
2023-04-29T06:06:22.251Z,24.75
2023-04-29T06:07:22.231Z,24.75
2023-04-29T06:08:22.232Z,24.76
2023-04-29T06:09:27.553Z,24.76
2023-04-29T06:10:23.282Z,24.77
2023-04-29T06:11:22.267Z,24.77
2023-04-29T06:12:22.218Z,24.78
2023-04-29T06:13:22.259Z,24.79
2023-04-29T06:14:22.218Z,24.80
2023-04-29T06:15:22.225Z,24.80
2023-04-29T06:16:22.222Z,24.81
2023-04-29T06:17:22.199Z,24.81
2023-04-29T06:18:22.213Z,24.81
2023-04-29T06:19:22.199Z,24.80
2023-04-29T06:20:22.171Z,24.80
2023-04-29T06:21:22.189Z,24.80
2023-04-29T06:22:22.166Z,24.80
2023-04-29T06:23:22.137Z,24.80
2023-04-29T06:24:22.178Z,24.80
2023-04-29T06:25:22.152Z,24.79
2023-04-29T06:26:22.164Z,24.79
2023-04-29T06:27:22.152Z,24.80
2023-04-29T06:28:22.144Z,24.81
2023-04-29T06:29:22.112Z,24.83
2023-04-29T06:30:22.108Z,24.85
2023-04-29T06:31:23.161Z,24.85
2023-04-29T06:32:22.092Z,24.85
2023-04-29T06:33:22.076Z,24.85
2023-04-29T06:34:22.095Z,24.85
2023-04-29T06:35:22.100Z,24.88
2023-04-29T06:36:22.070Z,24.88
2023-04-29T06:37:22.067Z,24.88
2023-04-29T06:38:22.038Z,24.88
2023-04-29T06:39:22.015Z,24.89
2023-04-29T06:40:22.029Z,24.91
2023-04-29T06:41:22.036Z,24.94
2023-04-29T06:42:22.011Z,24.96
2023-04-29T06:43:22.031Z,24.99
2023-04-29T06:44:22.010Z,25.00
2023-04-29T06:45:22.023Z,25.03
2023-04-29T06:46:22.057Z,25.06
2023-04-29T06:47:22.012Z,25.06
2023-04-29T06:48:22.040Z,25.06
2023-04-29T06:49:22.063Z,25.07
2023-04-29T06:50:22.058Z,25.09
2023-04-29T06:51:22.071Z,25.13
2023-04-29T06:52:22.075Z,25.11
2023-04-29T06:53:22.110Z,25.13
2023-04-29T06:54:22.113Z,25.13
2023-04-29T06:55:22.125Z,25.15
2023-04-29T06:56:22.168Z,25.18
2023-04-29T06:57:22.181Z,25.19
2023-04-29T06:58:22.225Z,25.19
2023-04-29T06:59:22.273Z,25.21
2023-04-29T07:00:22.288Z,25.22
2023-04-29T07:01:22.465Z,25.22
2023-04-29T07:02:22.448Z,25.21
2023-04-29T07:03:22.614Z,25.20
2023-04-29T07:04:22.533Z,25.20
2023-04-29T07:05:22.576Z,25.20
2023-04-29T07:06:22.613Z,25.20
2023-04-29T07:07:22.698Z,25.20
2023-04-29T07:08:22.843Z,25.20
2023-04-29T07:09:22.757Z,25.23
2023-04-29T07:10:22.826Z,25.23
2023-04-29T07:11:22.886Z,25.24
2023-04-29T07:12:22.941Z,25.25
2023-04-29T07:13:23.007Z,25.27
2023-04-29T07:14:23.089Z,25.31
2023-04-29T07:15:23.159Z,25.34
2023-04-29T07:16:23.196Z,25.37
2023-04-29T07:17:23.320Z,25.39
2023-04-29T07:18:23.342Z,25.40
2023-04-29T07:19:23.352Z,25.43
2023-04-29T07:20:23.425Z,25.44
2023-04-29T07:21:23.489Z,25.45
2023-04-29T07:22:23.500Z,25.45
2023-04-29T07:23:23.597Z,25.46
2023-04-29T07:24:23.645Z,25.45
2023-04-29T07:25:23.690Z,25.43
2023-04-29T07:26:23.736Z,25.45
2023-04-29T07:27:23.789Z,25.46
2023-04-29T07:28:23.899Z,25.46
2023-04-29T07:29:23.883Z,25.45
2023-04-29T07:30:23.985Z,25.45
2023-04-29T07:31:24.118Z,25.46
2023-04-29T07:32:24.053Z,25.45
2023-04-29T07:33:24.090Z,25.43
2023-04-29T07:34:24.112Z,25.43
2023-04-29T07:35:24.169Z,25.42
2023-04-29T07:36:24.271Z,25.42
2023-04-29T07:37:24.280Z,25.41
2023-04-29T07:38:24.337Z,25.44
2023-04-29T07:39:24.371Z,25.48
2023-04-29T07:40:24.420Z,25.51
2023-04-29T07:41:24.454Z,25.54
2023-04-29T07:42:24.505Z,25.57
2023-04-29T07:43:24.555Z,25.59
2023-04-29T07:44:24.556Z,25.62
2023-04-29T07:45:24.649Z,25.63
2023-04-29T07:46:24.688Z,25.65
2023-04-29T07:47:24.739Z,25.67
2023-04-29T07:48:24.816Z,25.69
2023-04-29T07:49:24.770Z,25.71
2023-04-29T07:50:24.772Z,25.72
2023-04-29T07:51:24.851Z,25.73
2023-04-29T07:52:24.851Z,25.75
2023-04-29T07:53:24.862Z,25.77
2023-04-29T07:54:24.898Z,25.79
2023-04-29T07:55:24.905Z,25.80
2023-04-29T07:56:24.911Z,25.81
2023-04-29T07:57:24.955Z,25.83
2023-04-29T07:58:24.993Z,25.84
2023-04-29T07:59:24.994Z,25.85
2023-04-29T08:00:25.024Z,25.87
2023-04-29T08:01:25.040Z,25.87
2023-04-29T08:02:25.134Z,25.88
2023-04-29T08:03:25.301Z,25.90
2023-04-29T08:04:25.185Z,25.91
2023-04-29T08:05:25.699Z,25.92
2023-04-29T08:06:25.118Z,25.94
2023-04-29T08:07:25.102Z,25.95
2023-04-29T08:08:25.157Z,25.96
2023-04-29T08:09:25.352Z,25.98
2023-04-29T08:10:25.146Z,25.98
2023-04-29T08:11:25.190Z,25.99
2023-04-29T08:12:25.161Z,26.00
2023-04-29T08:13:25.167Z,26.01
2023-04-29T08:14:25.201Z,26.02
2023-04-29T08:15:25.196Z,26.03
2023-04-29T08:16:25.210Z,26.03
2023-04-29T08:17:25.203Z,26.05
2023-04-29T08:18:25.205Z,26.05
2023-04-29T08:19:25.227Z,26.07
2023-04-29T08:20:25.214Z,26.06
2023-04-29T08:21:25.237Z,26.07
2023-04-29T08:22:25.208Z,26.07
2023-04-29T08:23:25.231Z,26.08
2023-04-29T08:24:25.207Z,26.08
2023-04-29T08:25:25.240Z,26.09
2023-04-29T08:26:25.247Z,26.10
2023-04-29T08:27:25.253Z,26.10
2023-04-29T08:28:25.219Z,26.10
2023-04-29T08:29:25.259Z,26.10
2023-04-29T08:30:25.244Z,26.11
2023-04-29T08:31:25.259Z,26.12
2023-04-29T08:32:25.318Z,26.13
2023-04-29T08:33:25.316Z,26.13
2023-04-29T08:34:25.244Z,26.14
2023-04-29T08:35:25.288Z,26.14
2023-04-29T08:36:25.432Z,26.15
2023-04-29T08:37:25.297Z,26.15
2023-04-29T08:38:25.309Z,26.16
2023-04-29T08:39:25.310Z,26.15
2023-04-29T08:40:25.302Z,26.16
2023-04-29T08:41:25.340Z,26.17
2023-04-29T08:42:25.342Z,26.17
2023-04-29T08:43:25.366Z,26.17
2023-04-29T08:44:25.341Z,26.18
2023-04-29T08:45:25.422Z,26.18
2023-04-29T08:46:25.462Z,26.18
2023-04-29T08:47:25.584Z,26.19
2023-04-29T08:48:25.663Z,26.20
2023-04-29T08:49:25.615Z,26.21
2023-04-29T08:50:25.691Z,26.20
2023-04-29T08:51:25.725Z,26.21
2023-04-29T08:52:25.788Z,26.21
2023-04-29T08:53:25.858Z,26.22
2023-04-29T08:54:25.921Z,26.21
2023-04-29T08:55:25.943Z,26.21
2023-04-29T08:56:27.964Z,26.22
2023-04-29T08:57:26.025Z,26.21
2023-04-29T08:58:26.002Z,26.22
2023-04-29T08:59:26.016Z,26.22
2023-04-29T09:00:26.022Z,26.23
2023-04-29T09:01:26.155Z,26.23
2023-04-29T09:02:26.108Z,26.22
2023-04-29T09:03:26.110Z,26.23
2023-04-29T09:04:26.143Z,26.23
2023-04-29T09:05:26.091Z,26.23
2023-04-29T09:06:26.072Z,26.23
2023-04-29T09:07:26.084Z,26.23
2023-04-29T09:08:26.104Z,26.23
2023-04-29T09:09:26.110Z,26.24
2023-04-29T09:10:26.079Z,26.24
2023-04-29T09:11:26.113Z,26.24
2023-04-29T09:12:26.105Z,26.23
2023-04-29T09:13:26.081Z,26.24
2023-04-29T09:14:26.139Z,26.24
2023-04-29T09:15:26.117Z,26.24
2023-04-29T09:16:26.183Z,26.25
2023-04-29T09:17:26.122Z,26.25
2023-04-29T09:18:26.136Z,26.25
2023-04-29T09:19:26.147Z,26.24
2023-04-29T09:20:26.157Z,26.25
2023-04-29T09:21:26.150Z,26.24
2023-04-29T09:22:26.167Z,26.25
2023-04-29T09:23:26.309Z,26.24
2023-04-29T09:24:26.279Z,26.24
2023-04-29T09:25:26.344Z,26.25
2023-04-29T09:26:26.367Z,26.26
2023-04-29T09:27:26.364Z,26.26
2023-04-29T09:28:26.369Z,26.26
2023-04-29T09:29:26.372Z,26.26
2023-04-29T09:30:26.376Z,26.26
2023-04-29T09:31:26.426Z,26.27
2023-04-29T09:32:26.462Z,26.27
2023-04-29T09:33:26.407Z,26.28
2023-04-29T09:34:26.416Z,26.29
2023-04-29T09:35:26.423Z,26.30
2023-04-29T09:36:26.420Z,26.30
2023-04-29T09:37:26.379Z,26.31
2023-04-29T09:38:26.450Z,26.32
2023-04-29T09:39:26.426Z,26.32
2023-04-29T09:40:26.438Z,26.34
2023-04-29T09:41:26.430Z,26.35
2023-04-29T09:42:26.422Z,26.36
2023-04-29T09:43:26.507Z,26.38
2023-04-29T09:44:26.421Z,26.40
2023-04-29T09:45:26.497Z,26.43
2023-04-29T09:46:26.492Z,26.45
2023-04-29T09:47:26.487Z,26.48
2023-04-29T09:48:26.507Z,26.51
2023-04-29T09:49:26.471Z,26.52
2023-04-29T09:50:26.508Z,26.53
2023-04-29T09:51:26.518Z,26.54
2023-04-29T09:52:26.525Z,26.55
2023-04-29T09:53:26.586Z,26.56
2023-04-29T09:54:26.584Z,26.56
2023-04-29T09:55:26.626Z,26.55
2023-04-29T09:56:26.613Z,26.56
2023-04-29T09:57:26.637Z,26.57
2023-04-29T09:58:26.663Z,26.56
2023-04-29T09:59:26.724Z,26.54
2023-04-29T10:00:26.764Z,26.53
2023-04-29T10:01:26.772Z,26.53
2023-04-29T10:02:26.785Z,26.53
2023-04-29T10:03:26.836Z,26.52
2023-04-29T10:04:26.822Z,26.55
2023-04-29T10:05:26.824Z,26.54
2023-04-29T10:06:26.858Z,26.53
2023-04-29T10:07:26.861Z,26.54
2023-04-29T10:08:26.913Z,26.55
2023-04-29T10:09:26.942Z,26.56
2023-04-29T10:10:28.085Z,26.55
2023-04-29T10:11:27.110Z,26.55
2023-04-29T10:12:27.147Z,26.57
2023-04-29T10:13:27.172Z,26.57
2023-04-29T10:14:27.189Z,26.56
2023-04-29T10:15:27.233Z,26.56
2023-04-29T10:16:27.372Z,26.59
2023-04-29T10:17:27.338Z,26.60
2023-04-29T10:18:27.357Z,26.59
2023-04-29T10:19:27.354Z,26.58
2023-04-29T10:20:27.391Z,26.57
2023-04-29T10:21:27.412Z,26.56
2023-04-29T10:22:27.462Z,26.56
2023-04-29T10:23:27.470Z,26.55
2023-04-29T10:24:27.487Z,26.56
2023-04-29T10:25:27.552Z,26.59
2023-04-29T10:26:27.578Z,26.62
2023-04-29T10:27:27.631Z,26.64
2023-04-29T10:28:27.691Z,26.65
2023-04-29T10:29:27.705Z,26.66
2023-04-29T10:30:27.767Z,26.67
2023-04-29T10:31:27.924Z,26.67
2023-04-29T10:32:30.549Z,26.66
2023-04-29T10:33:28.872Z,26.65
2023-04-29T10:34:27.845Z,26.65
2023-04-29T10:35:27.848Z,26.65
2023-04-29T10:36:27.815Z,26.62
2023-04-29T10:37:27.807Z,26.61
2023-04-29T10:38:27.839Z,26.57
2023-04-29T10:39:27.810Z,26.56
2023-04-29T10:40:27.866Z,26.54
2023-04-29T10:41:27.797Z,26.53
2023-04-29T10:42:27.821Z,26.52
2023-04-29T10:43:27.833Z,26.52
2023-04-29T10:44:27.833Z,26.51
2023-04-29T10:45:27.909Z,26.51
2023-04-29T10:46:27.939Z,26.50
2023-04-29T10:47:27.999Z,26.50
2023-04-29T10:48:28.017Z,26.50
2023-04-29T10:49:28.037Z,26.53
2023-04-29T10:50:28.103Z,26.55
2023-04-29T10:51:28.168Z,26.57
2023-04-29T10:52:28.213Z,26.59
2023-04-29T10:53:28.243Z,26.60
2023-04-29T10:54:28.289Z,26.62
2023-04-29T10:55:28.369Z,26.62
2023-04-29T10:56:28.448Z,26.63
2023-04-29T10:57:28.466Z,26.62
2023-04-29T10:58:28.519Z,26.62
2023-04-29T10:59:28.584Z,26.63
2023-04-29T11:00:28.678Z,26.61
2023-04-29T11:01:28.821Z,26.59
2023-04-29T11:02:28.869Z,26.58
2023-04-29T11:03:28.900Z,26.58
2023-04-29T11:04:28.897Z,26.56
2023-04-29T11:05:28.966Z,26.56
2023-04-29T11:06:28.989Z,26.55
2023-04-29T11:07:29.041Z,26.56
2023-04-29T11:08:29.084Z,26.55
2023-04-29T11:09:29.124Z,26.55
2023-04-29T11:10:29.175Z,26.55
2023-04-29T11:11:29.259Z,26.56
2023-04-29T11:12:29.292Z,26.56
2023-04-29T11:13:29.347Z,26.57
2023-04-29T11:14:29.389Z,26.56
2023-04-29T11:15:29.426Z,26.55
2023-04-29T11:16:29.580Z,26.54
2023-04-29T11:17:29.587Z,26.53
2023-04-29T11:18:29.594Z,26.54
2023-04-29T11:19:29.607Z,26.53
2023-04-29T11:20:29.651Z,26.52
2023-04-29T11:21:29.716Z,26.52
2023-04-29T11:22:29.739Z,26.52
2023-04-29T11:23:29.769Z,26.53
2023-04-29T11:24:29.828Z,26.53
2023-04-29T11:25:29.873Z,26.51
2023-04-29T11:26:29.908Z,26.50
2023-04-29T11:27:30.024Z,26.49
2023-04-29T11:28:29.993Z,26.48
2023-04-29T11:29:30.094Z,26.47
2023-04-29T11:30:30.044Z,26.46
2023-04-29T11:31:30.092Z,26.47
2023-04-29T11:32:30.203Z,26.47
2023-04-29T11:33:30.125Z,26.46
2023-04-29T11:34:30.100Z,26.47
2023-04-29T11:35:30.127Z,26.47
2023-04-29T11:36:30.176Z,26.47
2023-04-29T11:37:30.188Z,26.46
2023-04-29T11:38:30.307Z,26.46
2023-04-29T11:39:30.273Z,26.44
2023-04-29T11:40:30.268Z,26.43
2023-04-29T11:41:30.318Z,26.41
2023-04-29T11:42:30.296Z,26.40
2023-04-29T11:43:30.327Z,26.39
2023-04-29T11:44:30.323Z,26.37
2023-04-29T11:45:30.357Z,26.36
2023-04-29T11:46:30.351Z,26.35
2023-04-29T11:47:30.383Z,26.35
2023-04-29T11:48:30.358Z,26.36
2023-04-29T11:49:30.343Z,26.36
2023-04-29T11:50:30.325Z,26.37
2023-04-29T11:51:30.369Z,26.37
2023-04-29T11:52:30.368Z,26.38
2023-04-29T11:53:30.345Z,26.39
2023-04-29T11:54:30.355Z,26.39
2023-04-29T11:55:30.353Z,26.39
2023-04-29T11:56:30.391Z,26.40
2023-04-29T11:57:30.401Z,26.39
2023-04-29T11:58:30.407Z,26.37
2023-04-29T11:59:30.414Z,26.36
2023-04-29T12:00:30.424Z,26.33
2023-04-29T12:01:30.420Z,26.31
2023-04-29T12:02:30.598Z,26.30
2023-04-29T12:03:30.588Z,26.28
2023-04-29T12:04:30.614Z,26.27
2023-04-29T12:05:30.490Z,26.26
2023-04-29T12:06:30.613Z,26.24
2023-04-29T12:07:30.445Z,26.24
2023-04-29T12:08:30.440Z,26.26
2023-04-29T12:09:30.498Z,26.28
2023-04-29T12:10:30.533Z,26.29
2023-04-29T12:11:30.495Z,26.30
2023-04-29T12:12:30.472Z,26.30
2023-04-29T12:13:30.517Z,26.31
2023-04-29T12:14:30.492Z,26.31
2023-04-29T12:15:30.470Z,26.32
2023-04-29T12:16:30.664Z,26.32
2023-04-29T12:17:30.536Z,26.31
2023-04-29T12:18:30.497Z,26.30
2023-04-29T12:19:31.293Z,26.32
2023-04-29T12:20:30.458Z,26.33
2023-04-29T12:21:30.510Z,26.34
2023-04-29T12:22:30.495Z,26.33
2023-04-29T12:23:30.482Z,26.33
2023-04-29T12:24:30.504Z,26.31
2023-04-29T12:25:30.505Z,26.32
2023-04-29T12:26:30.504Z,26.31
2023-04-29T12:27:30.513Z,26.31
2023-04-29T12:28:30.503Z,26.32
2023-04-29T12:29:30.544Z,26.33
2023-04-29T12:30:30.473Z,26.33
2023-04-29T12:31:30.547Z,26.32
2023-04-29T12:32:30.561Z,26.31
2023-04-29T12:33:30.586Z,26.31
2023-04-29T12:34:30.516Z,26.30
2023-04-29T12:35:30.502Z,26.30
2023-04-29T12:36:30.513Z,26.29
2023-04-29T12:37:30.516Z,26.29
2023-04-29T12:38:30.529Z,26.28
2023-04-29T12:39:30.556Z,26.28
2023-04-29T12:40:30.597Z,26.27
2023-04-29T12:41:30.526Z,26.26
2023-04-29T12:42:30.514Z,26.26
2023-04-29T12:43:30.519Z,26.26
2023-04-29T12:44:30.548Z,26.25
2023-04-29T12:45:30.526Z,26.25
2023-04-29T12:46:30.606Z,26.26
2023-04-29T12:47:30.592Z,26.26
2023-04-29T12:48:32.975Z,26.25
2023-04-29T12:49:30.546Z,26.23
2023-04-29T12:50:30.534Z,26.23
2023-04-29T12:51:30.549Z,26.24
2023-04-29T12:52:30.520Z,26.25